Archival Weather

Fukuoka

Fukuoka, Japan (RJFF)

Report from: Monday, August 15, 2022 7:30 AM JST
Current time: Sunday, February 25, 2024 12:57 AM JST

Current weather – Weather history – Daily summaries
Weather forecast

Temperature29.0°C (84.2°F)
Heat index35.6°C (96.1°F)
Dew point26.0°C (78.8°F)
Winds 12 kts (6.2 m/s, 13.8 mph) South-Southeast (150°)
Visibility6.2 mi. (10 km)
Clouds Few clouds 1,000 ft. (305 m)
Altimeter29.77 in.Hg (1008 mB)
Relative humidity84 %
Density altitude2,232 ft. (680 m)
Remarks No significant changes expected in the next two hours
Flight conditions Visual Meteorological Conditions
Raw dataRJFF 142230Z 15012KT 9999 FEW010 29/26 Q1008 NOSIG
An error has occurred. This application may no longer respond until reloaded. Reload 🗙